createdAt,value
2024-04-07T00:02:47.585Z,38.3512
2024-04-07T00:12:59.145Z,38.3525
2024-04-07T00:23:10.590Z,38.3467
2024-04-07T00:33:21.816Z,38.3488
2024-04-07T00:43:33.209Z,38.3471
2024-04-07T00:53:44.110Z,38.3496
2024-04-07T01:03:54.837Z,38.3462
2024-04-07T01:14:05.992Z,38.3467
2024-04-07T01:24:16.841Z,38.3521
2024-04-07T01:34:27.706Z,38.3590
2024-04-07T01:44:39.259Z,38.3621
2024-04-07T01:54:50.770Z,38.3627
2024-04-07T02:05:01.429Z,38.3640
2024-04-07T02:15:12.814Z,38.3650
2024-04-07T02:25:23.924Z,38.3633
2024-04-07T02:35:34.843Z,38.3625
2024-04-07T02:45:45.924Z,38.3640
2024-04-07T02:55:57.399Z,38.3648
2024-04-07T03:06:08.443Z,38.3667
2024-04-07T03:16:19.901Z,38.3625
2024-04-07T03:26:30.914Z,38.3610
2024-04-07T03:36:42.444Z,38.3592
2024-04-07T03:46:53.122Z,38.3577
2024-04-07T03:57:04.211Z,38.3594
2024-04-07T04:07:15.244Z,38.3596
2024-04-07T04:17:26.587Z,38.3627
2024-04-07T04:27:37.449Z,38.3625
2024-04-07T04:37:48.137Z,38.3633
2024-04-07T04:47:59.241Z,38.3648
2024-04-07T04:58:10.268Z,38.3529
2024-04-07T05:08:21.043Z,38.3500
2024-04-07T05:18:32.317Z,38.3442
2024-04-07T05:28:43.184Z,38.3438
2024-04-07T05:38:54.996Z,38.3454
2024-04-07T05:49:06.476Z,38.3496
2024-04-07T05:59:17.516Z,38.3488
2024-04-07T06:09:28.916Z,38.3446
2024-04-07T06:19:39.821Z,38.3492
2024-04-07T06:29:51.545Z,38.3521
2024-04-07T06:40:02.583Z,38.3483
2024-04-07T06:50:13.953Z,38.3538
2024-04-07T07:00:24.940Z,38.3579
2024-04-07T07:10:36.459Z,38.3594
2024-04-07T07:20:48.196Z,38.3635
2024-04-07T07:30:59.928Z,38.3665
2024-04-07T07:41:11.596Z,38.3679
2024-04-07T07:51:23.143Z,38.3692
2024-04-07T08:01:36.401Z,38.3646
2024-04-07T08:11:49.303Z,38.3654
2024-04-07T08:22:00.406Z,38.3675
2024-04-07T08:32:11.402Z,38.3654
2024-04-07T08:42:23.015Z,38.3648
2024-04-07T08:52:34.211Z,38.3627
2024-04-07T09:02:45.351Z,38.3613
2024-04-07T09:12:56.972Z,38.3604
2024-04-07T09:23:07.725Z,38.3585
2024-04-07T09:33:19.296Z,38.3512
2024-04-07T09:43:30.950Z,38.3342
2024-04-07T09:53:42.591Z,38.3240
2024-04-07T10:03:53.607Z,38.3154
2024-04-07T10:14:04.519Z,38.3088
2024-04-07T10:24:15.650Z,38.2969
2024-04-07T10:34:26.490Z,38.2390
2024-04-07T10:44:37.963Z,38.0840
2024-04-07T10:54:49.493Z,38.0294
2024-04-07T11:05:00.390Z,37.9906
2024-04-07T11:15:11.982Z,37.9406
2024-04-07T11:25:22.816Z,37.8946
2024-04-07T11:35:33.680Z,37.8723
2024-04-07T11:45:44.192Z,37.8569
2024-04-07T11:55:55.738Z,37.8365
2024-04-07T12:06:07.289Z,37.8221
2024-04-07T12:16:17.834Z,37.7971
2024-04-07T12:26:29.388Z,37.7787
2024-04-07T12:36:41.282Z,37.7596
2024-04-07T12:46:54.045Z,37.7310
2024-04-07T12:57:04.938Z,37.7198
2024-04-07T13:07:16.704Z,37.6875
2024-04-07T13:17:28.384Z,37.6604
2024-04-07T13:27:40.027Z,37.6338
2024-04-07T13:37:51.640Z,37.6085
2024-04-07T13:48:03.174Z,37.5877
2024-04-07T13:58:14.914Z,37.5665
2024-04-07T14:08:26.556Z,37.5294
2024-04-07T14:18:37.312Z,37.5073
2024-04-07T14:28:48.591Z,37.4860
2024-04-07T14:38:59.841Z,37.4650
2024-04-07T14:49:11.402Z,37.4383
2024-04-07T14:59:22.350Z,37.4190
2024-04-07T15:09:33.165Z,37.3990
2024-04-07T15:19:44.843Z,37.3819
2024-04-07T15:29:55.550Z,37.3600
2024-04-07T15:40:08.915Z,37.3375
2024-04-07T15:50:20.060Z,37.3267
2024-04-07T16:00:31.598Z,37.3162
2024-04-07T16:10:42.288Z,37.3090
2024-04-07T16:20:55.485Z,37.2967
2024-04-07T16:31:06.963Z,37.2856
2024-04-07T16:41:18.051Z,37.2779
2024-04-07T16:51:28.912Z,37.2702
2024-04-07T17:01:40.483Z,37.2685
2024-04-07T17:11:52.213Z,37.2663
2024-04-07T17:22:03.196Z,37.2627
2024-04-07T17:32:14.032Z,37.2558
2024-04-07T17:42:24.923Z,37.2496
2024-04-07T17:52:36.467Z,37.2429
2024-04-07T18:02:48.248Z,37.2385
2024-04-07T18:12:59.626Z,37.2379
2024-04-07T18:23:10.486Z,37.2808
2024-04-07T18:33:21.629Z,37.2890
2024-04-07T18:43:32.811Z,37.2960
2024-04-07T18:53:44.026Z,37.3050
2024-04-07T19:03:54.948Z,37.3096
2024-04-07T19:14:06.597Z,37.3067
2024-04-07T19:24:17.894Z,37.3042
2024-04-07T19:34:29.060Z,37.2942
2024-04-07T19:44:40.202Z,37.2938
2024-04-07T19:54:51.596Z,37.2946
2024-04-07T20:05:02.692Z,37.2933
2024-04-07T20:15:13.606Z,37.2908
2024-04-07T20:25:25.074Z,37.2956
2024-04-07T20:35:36.209Z,37.2938
2024-04-07T20:45:46.944Z,37.2904
2024-04-07T20:55:57.845Z,37.2929
2024-04-07T21:06:08.798Z,37.2921
2024-04-07T21:16:19.526Z,37.2908
2024-04-07T21:26:30.644Z,37.2892
2024-04-07T21:36:41.681Z,37.2906
2024-04-07T21:46:52.679Z,37.2975
2024-04-07T21:57:03.664Z,37.2971
2024-04-07T22:07:14.469Z,37.2992
2024-04-07T22:17:25.409Z,37.3094
2024-04-07T22:27:36.332Z,37.3029
2024-04-07T22:37:47.463Z,37.3071
2024-04-07T22:47:57.937Z,37.3092
2024-04-07T22:58:08.963Z,37.3110
2024-04-07T23:08:20.172Z,37.3154
2024-04-07T23:18:31.489Z,37.3158
2024-04-07T23:28:42.243Z,37.3127
2024-04-07T23:38:53.005Z,37.3002
2024-04-07T23:49:04.093Z,37.3056
2024-04-07T23:59:15.011Z,37.2796
